Airfield :
LOGIN :

Register | Disclaimer

   EN    FR    IT 

 










Legend :    VFR   Marginal VFR   IFR   Intensive IFR   Very Intensive IFR
Visi :
Ceiling :
>= 8 km
>= 3000ft
5 to 8 km
1000 to 3000 ft
1500m to 5 km
500 to 1000 ft
800 to 1500m
200 to 500 ft
< 800m
< 200 ft
Symbols :   Thunderstorms  Fog  Heavy snow  Heavy precipitations  Wind > 20 kt
SIGMETs :     Misc.  Thunderstorms  Icing  Turbulence  Mountain Waves  Volcanic Ashes






- Airport Elevation : 245 ft
- IATA code : BIQ


LFBZ - Biarritz

CURRENT METAR :
  • 070700Z AUTO 29012KT 9999 BKN012 BKN021 BKN028 21/18 Q1028 BECMG SCT015

EXPIRED METARs :
  • 070630Z AUTO 28012KT 240V300 9999 BKN011 BKN019 BKN037 20/18 Q1027 BECMG SCT015
  • 070600Z AUTO 28013KT 9999 BKN010 BKN015 BKN027 20/18 Q1027 NOSIG
  • 070530Z AUTO 28013KT 9999 BKN011 BKN016 OVC022 20/18 Q1027 TEMPO BKN009
  • 070500Z AUTO 28011KT 9999 BKN010 BKN016 BKN023 20/18 Q1027 NOSIG
  • 070400Z AUTO 28011KT 9999 BKN012 BKN022 20/18 Q1026 TEMPO BKN007

TAF TAF LFBZ
Valid from the 07 at 06:00 until the 08 at 06:00 UTC


070500Z 0706/0806 27010KT 9999 BKN015
PROB30
TEMPO 0706/0708 BKN009
BECMG 0708/0710 SCT015
BECMG 0712/0714 CAVOK
PROB40
TEMPO 0719/0803 BKN010
BECMG 0801/0803 BKN010



MET'MAP, your aeronautical weather chart ! - Copyright ORBIFLY December 2007 - Disclaimer

ORBIFLY MET'MAP TEAM :

Programming & Development : Alexandra Zaïnal
Original concept : Baudouin d'Aumeries
Technical & hardware support : Manuel Goepfert
Assistance : Marc-Olivier Méhu




SOURCES & CREDITS :

   NOAA